sensor_id;sensor_type;location;lat;lon;timestamp;P1;durP1;ratioP1;P2;durP2;ratioP2
6505;SDS011;3286;49.858;8.768;2023-03-31T00:00:20;6.07;;;1.80;;
6505;SDS011;3286;49.858;8.768;2023-03-31T00:02:49;7.50;;;1.37;;
6505;SDS011;3286;49.858;8.768;2023-03-31T00:05:18;6.30;;;1.40;;
6505;SDS011;3286;49.858;8.768;2023-03-31T00:07:51;10.87;;;2.13;;
6505;SDS011;3286;49.858;8.768;2023-03-31T00:10:19;3.57;;;1.30;;
6505;SDS011;3286;49.858;8.768;2023-03-31T00:12:46;5.37;;;1.90;;
6505;SDS011;3286;49.858;8.768;2023-03-31T00:15:13;3.30;;;1.00;;
6505;SDS011;3286;49.858;8.768;2023-03-31T00:17:39;6.63;;;1.40;;
6505;SDS011;3286;49.858;8.768;2023-03-31T00:20:09;6.00;;;1.57;;
6505;SDS011;3286;49.858;8.768;2023-03-31T00:22:36;3.57;;;1.40;;
6505;SDS011;3286;49.858;8.768;2023-03-31T00:25:07;6.40;;;1.53;;
6505;SDS011;3286;49.858;8.768;2023-03-31T00:27:34;9.13;;;1.90;;
6505;SDS011;3286;49.858;8.768;2023-03-31T00:30:01;5.80;;;1.53;;
6505;SDS011;3286;49.858;8.768;2023-03-31T00:32:28;5.33;;;1.30;;
6505;SDS011;3286;49.858;8.768;2023-03-31T00:34:54;7.10;;;1.87;;
6505;SDS011;3286;49.858;8.768;2023-03-31T00:37:23;9.80;;;1.90;;
6505;SDS011;3286;49.858;8.768;2023-03-31T00:39:49;7.70;;;1.97;;
6505;SDS011;3286;49.858;8.768;2023-03-31T00:42:16;4.57;;;1.33;;
6505;SDS011;3286;49.858;8.768;2023-03-31T00:47:49;9.13;;;1.87;;
6505;SDS011;3286;49.858;8.768;2023-03-31T00:50:19;4.77;;;1.57;;
6505;SDS011;3286;49.858;8.768;2023-03-31T00:52:50;4.20;;;1.40;;
6505;SDS011;3286;49.858;8.768;2023-03-31T00:55:22;3.90;;;1.67;;
6505;SDS011;3286;49.858;8.768;2023-03-31T00:57:53;6.83;;;2.07;;
6505;SDS011;3286;49.858;8.768;2023-03-31T01:00:22;10.43;;;1.83;;
6505;SDS011;3286;49.858;8.768;2023-03-31T01:02:50;3.60;;;1.70;;
6505;SDS011;3286;49.858;8.768;2023-03-31T01:05:21;5.77;;;1.50;;
6505;SDS011;3286;49.858;8.768;2023-03-31T01:07:51;5.43;;;1.33;;
6505;SDS011;3286;49.858;8.768;2023-03-31T01:10:19;5.37;;;1.47;;
6505;SDS011;3286;49.858;8.768;2023-03-31T01:12:47;8.07;;;1.80;;
6505;SDS011;3286;49.858;8.768;2023-03-31T01:15:17;5.20;;;1.40;;
6505;SDS011;3286;49.858;8.768;2023-03-31T01:17:44;10.03;;;2.17;;
6505;SDS011;3286;49.858;8.768;2023-03-31T01:20:16;7.40;;;1.50;;
6505;SDS011;3286;49.858;8.768;2023-03-31T01:22:56;5.07;;;1.70;;
6505;SDS011;3286;49.858;8.768;2023-03-31T01:25:53;5.23;;;1.33;;
6505;SDS011;3286;49.858;8.768;2023-03-31T01:28:49;5.10;;;1.60;;
6505;SDS011;3286;49.858;8.768;2023-03-31T01:31:44;8.43;;;1.87;;
6505;SDS011;3286;49.858;8.768;2023-03-31T01:41:02;9.00;;;1.90;;
6505;SDS011;3286;49.858;8.768;2023-03-31T01:43:38;6.30;;;2.10;;
6505;SDS011;3286;49.858;8.768;2023-03-31T01:46:13;12.10;;;2.73;;
6505;SDS011;3286;49.858;8.768;2023-03-31T01:48:47;6.53;;;1.40;;
6505;SDS011;3286;49.858;8.768;2023-03-31T01:51:21;7.13;;;1.70;;
6505;SDS011;3286;49.858;8.768;2023-03-31T01:53:59;7.50;;;1.70;;
6505;SDS011;3286;49.858;8.768;2023-03-31T01:56:33;5.38;;;1.50;;
6505;SDS011;3286;49.858;8.768;2023-03-31T01:59:02;3.83;;;1.30;;
6505;SDS011;3286;49.858;8.768;2023-03-31T02:01:37;4.33;;;1.60;;
6505;SDS011;3286;49.858;8.768;2023-03-31T02:04:10;7.83;;;1.70;;
6505;SDS011;3286;49.858;8.768;2023-03-31T02:06:42;5.20;;;1.70;;
6505;SDS011;3286;49.858;8.768;2023-03-31T02:09:14;5.83;;;1.60;;
6505;SDS011;3286;49.858;8.768;2023-03-31T02:11:46;10.07;;;1.90;;
6505;SDS011;3286;49.858;8.768;2023-03-31T02:14:15;7.00;;;2.00;;
6505;SDS011;3286;49.858;8.768;2023-03-31T02:16:46;6.50;;;1.83;;
6505;SDS011;3286;49.858;8.768;2023-03-31T02:19:17;7.50;;;1.80;;
6505;SDS011;3286;49.858;8.768;2023-03-31T02:21:47;5.53;;;1.93;;
6505;SDS011;3286;49.858;8.768;2023-03-31T02:24:14;9.37;;;2.10;;
6505;SDS011;3286;49.858;8.768;2023-03-31T02:26:45;5.63;;;1.33;;
6505;SDS011;3286;49.858;8.768;2023-03-31T02:29:17;6.15;;;1.70;;
6505;SDS011;3286;49.858;8.768;2023-03-31T02:31:45;6.03;;;1.50;;
6505;SDS011;3286;49.858;8.768;2023-03-31T02:34:14;9.40;;;1.93;;
6505;SDS011;3286;49.858;8.768;2023-03-31T02:36:41;8.13;;;1.60;;
6505;SDS011;3286;49.858;8.768;2023-03-31T02:39:10;5.73;;;1.70;;
6505;SDS011;3286;49.858;8.768;2023-03-31T02:41:40;5.17;;;1.60;;
6505;SDS011;3286;49.858;8.768;2023-03-31T02:44:09;4.87;;;1.60;;
6505;SDS011;3286;49.858;8.768;2023-03-31T02:46:36;7.37;;;1.83;;
6505;SDS011;3286;49.858;8.768;2023-03-31T02:49:03;10.67;;;2.00;;
6505;SDS011;3286;49.858;8.768;2023-03-31T02:54:50;6.80;;;2.00;;
6505;SDS011;3286;49.858;8.768;2023-03-31T02:57:36;8.57;;;1.87;;
6505;SDS011;3286;49.858;8.768;2023-03-31T03:00:20;9.97;;;1.77;;
6505;SDS011;3286;49.858;8.768;2023-03-31T03:03:00;4.27;;;1.70;;
6505;SDS011;3286;49.858;8.768;2023-03-31T03:05:40;8.60;;;1.90;;
6505;SDS011;3286;49.858;8.768;2023-03-31T03:08:16;4.00;;;1.60;;
6505;SDS011;3286;49.858;8.768;2023-03-31T03:10:52;7.50;;;1.80;;
6505;SDS011;3286;49.858;8.768;2023-03-31T03:13:29;8.17;;;1.37;;
6505;SDS011;3286;49.858;8.768;2023-03-31T03:16:04;6.37;;;1.60;;
6505;SDS011;3286;49.858;8.768;2023-03-31T03:18:38;4.80;;;1.40;;
6505;SDS011;3286;49.858;8.768;2023-03-31T03:21:04;8.30;;;1.90;;
6505;SDS011;3286;49.858;8.768;2023-03-31T03:23:31;6.57;;;1.43;;
6505;SDS011;3286;49.858;8.768;2023-03-31T03:25:58;4.27;;;1.53;;
6505;SDS011;3286;49.858;8.768;2023-03-31T03:28:24;4.40;;;1.50;;
6505;SDS011;3286;49.858;8.768;2023-03-31T03:30:51;3.87;;;1.63;;
6505;SDS011;3286;49.858;8.768;2023-03-31T03:33:19;4.17;;;1.23;;
6505;SDS011;3286;49.858;8.768;2023-03-31T03:35:49;6.27;;;2.00;;
6505;SDS011;3286;49.858;8.768;2023-03-31T03:38:15;5.27;;;1.53;;
6505;SDS011;3286;49.858;8.768;2023-03-31T03:40:42;4.27;;;1.47;;
6505;SDS011;3286;49.858;8.768;2023-03-31T03:43:08;7.30;;;1.83;;
6505;SDS011;3286;49.858;8.768;2023-03-31T03:45:35;5.77;;;1.70;;
6505;SDS011;3286;49.858;8.768;2023-03-31T03:48:01;4.03;;;1.30;;
6505;SDS011;3286;49.858;8.768;2023-03-31T03:50:30;4.73;;;1.97;;
6505;SDS011;3286;49.858;8.768;2023-03-31T03:52:56;7.27;;;2.00;;
6505;SDS011;3286;49.858;8.768;2023-03-31T03:55:23;6.43;;;2.47;;
6505;SDS011;3286;49.858;8.768;2023-03-31T03:57:49;8.07;;;1.90;;
6505;SDS011;3286;49.858;8.768;2023-03-31T04:00:16;6.10;;;1.50;;
6505;SDS011;3286;49.858;8.768;2023-03-31T04:02:43;6.93;;;1.90;;
6505;SDS011;3286;49.858;8.768;2023-03-31T04:05:10;4.20;;;1.43;;
6505;SDS011;3286;49.858;8.768;2023-03-31T04:07:38;6.80;;;2.17;;
6505;SDS011;3286;49.858;8.768;2023-03-31T04:10:05;3.07;;;1.53;;
6505;SDS011;3286;49.858;8.768;2023-03-31T04:12:32;3.67;;;1.57;;
6505;SDS011;3286;49.858;8.768;2023-03-31T04:14:59;3.53;;;1.43;;
6505;SDS011;3286;49.858;8.768;2023-03-31T04:17:26;6.07;;;1.50;;
6505;SDS011;3286;49.858;8.768;2023-03-31T04:19:58;5.07;;;1.60;;
6505;SDS011;3286;49.858;8.768;2023-03-31T04:22:27;5.10;;;2.10;;
6505;SDS011;3286;49.858;8.768;2023-03-31T04:25:00;6.87;;;2.10;;
6505;SDS011;3286;49.858;8.768;2023-03-31T04:27:27;7.37;;;1.87;;
6505;SDS011;3286;49.858;8.768;2023-03-31T04:29:55;8.10;;;1.40;;
6505;SDS011;3286;49.858;8.768;2023-03-31T04:32:21;3.63;;;1.50;;
6505;SDS011;3286;49.858;8.768;2023-03-31T04:34:49;12.30;;;2.97;;
6505;SDS011;3286;49.858;8.768;2023-03-31T04:37:15;5.57;;;2.00;;
6505;SDS011;3286;49.858;8.768;2023-03-31T04:39:42;6.07;;;1.50;;
6505;SDS011;3286;49.858;8.768;2023-03-31T04:42:12;5.27;;;2.30;;
6505;SDS011;3286;49.858;8.768;2023-03-31T04:44:39;9.80;;;2.27;;
6505;SDS011;3286;49.858;8.768;2023-03-31T04:47:05;6.57;;;2.03;;
6505;SDS011;3286;49.858;8.768;2023-03-31T04:49:32;3.03;;;1.13;;
6505;SDS011;3286;49.858;8.768;2023-03-31T04:51:59;3.93;;;1.70;;
6505;SDS011;3286;49.858;8.768;2023-03-31T04:54:26;5.27;;;1.53;;
6505;SDS011;3286;49.858;8.768;2023-03-31T04:56:53;6.47;;;1.57;;
6505;SDS011;3286;49.858;8.768;2023-03-31T04:59:21;3.47;;;1.27;;
6505;SDS011;3286;49.858;8.768;2023-03-31T05:01:48;8.43;;;1.77;;
6505;SDS011;3286;49.858;8.768;2023-03-31T05:04:14;9.40;;;1.70;;
6505;SDS011;3286;49.858;8.768;2023-03-31T05:06:41;5.03;;;2.10;;
6505;SDS011;3286;49.858;8.768;2023-03-31T05:09:07;6.10;;;1.80;;
6505;SDS011;3286;49.858;8.768;2023-03-31T05:11:34;8.63;;;1.80;;
6505;SDS011;3286;49.858;8.768;2023-03-31T05:14:02;4.87;;;1.53;;
6505;SDS011;3286;49.858;8.768;2023-03-31T05:16:30;7.40;;;1.80;;
6505;SDS011;3286;49.858;8.768;2023-03-31T05:18:56;5.93;;;1.70;;
6505;SDS011;3286;49.858;8.768;2023-03-31T05:21:23;4.67;;;1.77;;
6505;SDS011;3286;49.858;8.768;2023-03-31T05:23:51;3.77;;;1.60;;
6505;SDS011;3286;49.858;8.768;2023-03-31T05:26:18;3.73;;;1.27;;
6505;SDS011;3286;49.858;8.768;2023-03-31T05:28:46;6.67;;;2.23;;
6505;SDS011;3286;49.858;8.768;2023-03-31T05:31:12;6.97;;;1.50;;
6505;SDS011;3286;49.858;8.768;2023-03-31T05:33:40;4.23;;;1.70;;
6505;SDS011;3286;49.858;8.768;2023-03-31T05:36:07;6.63;;;2.03;;
6505;SDS011;3286;49.858;8.768;2023-03-31T05:38:35;5.63;;;2.03;;
6505;SDS011;3286;49.858;8.768;2023-03-31T05:41:02;4.53;;;1.63;;
6505;SDS011;3286;49.858;8.768;2023-03-31T05:43:28;4.80;;;1.70;;
6505;SDS011;3286;49.858;8.768;2023-03-31T05:45:55;6.03;;;1.70;;
6505;SDS011;3286;49.858;8.768;2023-03-31T05:48:22;3.07;;;1.80;;
6505;SDS011;3286;49.858;8.768;2023-03-31T05:50:50;6.87;;;2.00;;
6505;SDS011;3286;49.858;8.768;2023-03-31T05:53:17;4.50;;;1.70;;
6505;SDS011;3286;49.858;8.768;2023-03-31T05:55:43;3.67;;;1.90;;
6505;SDS011;3286;49.858;8.768;2023-03-31T05:58:10;6.97;;;1.80;;
6505;SDS011;3286;49.858;8.768;2023-03-31T06:00:37;6.93;;;2.03;;
6505;SDS011;3286;49.858;8.768;2023-03-31T06:03:03;4.67;;;1.57;;
6505;SDS011;3286;49.858;8.768;2023-03-31T06:05:32;5.63;;;2.10;;
6505;SDS011;3286;49.858;8.768;2023-03-31T06:08:00;9.17;;;2.27;;
6505;SDS011;3286;49.858;8.768;2023-03-31T06:10:27;5.93;;;2.47;;
6505;SDS011;3286;49.858;8.768;2023-03-31T06:12:54;6.17;;;2.03;;
6505;SDS011;3286;49.858;8.768;2023-03-31T06:15:21;5.17;;;2.37;;
6505;SDS011;3286;49.858;8.768;2023-03-31T06:17:47;8.67;;;2.80;;
6505;SDS011;3286;49.858;8.768;2023-03-31T06:20:14;6.60;;;2.03;;
6505;SDS011;3286;49.858;8.768;2023-03-31T06:22:40;6.80;;;2.33;;
6505;SDS011;3286;49.858;8.768;2023-03-31T06:25:09;6.63;;;2.90;;
6505;SDS011;3286;49.858;8.768;2023-03-31T06:27:35;8.97;;;2.67;;
6505;SDS011;3286;49.858;8.768;2023-03-31T06:30:02;7.93;;;2.90;;
6505;SDS011;3286;49.858;8.768;2023-03-31T06:32:29;6.03;;;2.57;;
6505;SDS011;3286;49.858;8.768;2023-03-31T06:34:56;5.57;;;2.70;;
6505;SDS011;3286;49.858;8.768;2023-03-31T06:37:23;7.90;;;2.53;;
6505;SDS011;3286;49.858;8.768;2023-03-31T06:39:49;5.37;;;3.00;;
6505;SDS011;3286;49.858;8.768;2023-03-31T06:42:17;8.57;;;2.53;;
6505;SDS011;3286;49.858;8.768;2023-03-31T06:44:44;9.00;;;3.13;;
6505;SDS011;3286;49.858;8.768;2023-03-31T06:47:10;7.50;;;3.03;;
6505;SDS011;3286;49.858;8.768;2023-03-31T06:49:37;9.73;;;3.30;;
6505;SDS011;3286;49.858;8.768;2023-03-31T06:52:03;7.07;;;2.73;;
6505;SDS011;3286;49.858;8.768;2023-03-31T06:54:31;9.70;;;3.30;;
6505;SDS011;3286;49.858;8.768;2023-03-31T06:56:57;5.60;;;2.70;;
6505;SDS011;3286;49.858;8.768;2023-03-31T06:59:25;9.80;;;3.00;;
6505;SDS011;3286;49.858;8.768;2023-03-31T07:01:52;6.27;;;3.13;;
6505;SDS011;3286;49.858;8.768;2023-03-31T07:04:18;6.50;;;3.13;;
6505;SDS011;3286;49.858;8.768;2023-03-31T07:06:45;7.00;;;2.90;;
6505;SDS011;3286;49.858;8.768;2023-03-31T07:09:12;6.90;;;2.70;;
6505;SDS011;3286;49.858;8.768;2023-03-31T07:11:38;5.63;;;3.00;;
6505;SDS011;3286;49.858;8.768;2023-03-31T07:14:05;7.83;;;3.17;;
6505;SDS011;3286;49.858;8.768;2023-03-31T07:16:33;6.40;;;2.97;;
6505;SDS011;3286;49.858;8.768;2023-03-31T07:19:00;8.03;;;3.17;;
6505;SDS011;3286;49.858;8.768;2023-03-31T07:21:28;6.70;;;2.80;;
6505;SDS011;3286;49.858;8.768;2023-03-31T07:23:55;6.50;;;2.70;;
6505;SDS011;3286;49.858;8.768;2023-03-31T07:26:22;9.07;;;3.10;;
6505;SDS011;3286;49.858;8.768;2023-03-31T07:28:48;8.10;;;3.00;;
6505;SDS011;3286;49.858;8.768;2023-03-31T07:31:15;5.93;;;3.03;;
6505;SDS011;3286;49.858;8.768;2023-03-31T07:33:43;7.80;;;2.90;;
6505;SDS011;3286;49.858;8.768;2023-03-31T07:36:10;7.67;;;3.87;;
6505;SDS011;3286;49.858;8.768;2023-03-31T07:38:37;8.53;;;3.27;;
6505;SDS011;3286;49.858;8.768;2023-03-31T07:41:04;7.77;;;3.07;;
6505;SDS011;3286;49.858;8.768;2023-03-31T07:43:34;5.13;;;2.90;;
6505;SDS011;3286;49.858;8.768;2023-03-31T07:46:01;7.43;;;3.10;;
6505;SDS011;3286;49.858;8.768;2023-03-31T07:48:29;8.70;;;3.20;;
6505;SDS011;3286;49.858;8.768;2023-03-31T07:50:57;7.10;;;2.93;;
6505;SDS011;3286;49.858;8.768;2023-03-31T07:53:23;8.57;;;2.80;;
6505;SDS011;3286;49.858;8.768;2023-03-31T07:55:50;4.60;;;2.40;;
6505;SDS011;3286;49.858;8.768;2023-03-31T07:58:17;5.83;;;2.50;;
6505;SDS011;3286;49.858;8.768;2023-03-31T08:00:43;5.20;;;2.10;;
6505;SDS011;3286;49.858;8.768;2023-03-31T08:03:10;3.20;;;2.00;;
6505;SDS011;3286;49.858;8.768;2023-03-31T08:05:36;2.73;;;1.90;;
6505;SDS011;3286;49.858;8.768;2023-03-31T08:08:04;3.43;;;1.77;;
6505;SDS011;3286;49.858;8.768;2023-03-31T08:10:31;2.57;;;1.53;;
6505;SDS011;3286;49.858;8.768;2023-03-31T08:12:58;2.10;;;1.40;;
6505;SDS011;3286;49.858;8.768;2023-03-31T08:15:25;4.27;;;1.47;;
6505;SDS011;3286;49.858;8.768;2023-03-31T08:17:52;1.57;;;1.17;;
6505;SDS011;3286;49.858;8.768;2023-03-31T08:20:18;2.87;;;1.53;;
6505;SDS011;3286;49.858;8.768;2023-03-31T08:22:45;1.93;;;1.37;;
6505;SDS011;3286;49.858;8.768;2023-03-31T08:25:13;1.27;;;1.10;;
6505;SDS011;3286;49.858;8.768;2023-03-31T08:27:40;3.80;;;1.43;;
6505;SDS011;3286;49.858;8.768;2023-03-31T08:30:08;1.87;;;1.30;;
6505;SDS011;3286;49.858;8.768;2023-03-31T08:32:36;4.37;;;1.47;;
6505;SDS011;3286;49.858;8.768;2023-03-31T08:35:03;1.30;;;1.20;;
6505;SDS011;3286;49.858;8.768;2023-03-31T08:37:30;3.77;;;1.27;;
6505;SDS011;3286;49.858;8.768;2023-03-31T08:39:57;4.07;;;1.40;;
6505;SDS011;3286;49.858;8.768;2023-03-31T08:42:27;9.77;;;2.60;;
6505;SDS011;3286;49.858;8.768;2023-03-31T08:45:01;2.40;;;1.53;;
6505;SDS011;3286;49.858;8.768;2023-03-31T08:47:30;3.37;;;1.60;;
6505;SDS011;3286;49.858;8.768;2023-03-31T08:50:02;3.93;;;1.80;;
6505;SDS011;3286;49.858;8.768;2023-03-31T08:52:33;2.23;;;2.00;;
6505;SDS011;3286;49.858;8.768;2023-03-31T08:55:04;4.73;;;2.53;;
6505;SDS011;3286;49.858;8.768;2023-03-31T08:57:37;11.33;;;6.30;;
6505;SDS011;3286;49.858;8.768;2023-03-31T09:00:13;4.80;;;2.17;;
6505;SDS011;3286;49.858;8.768;2023-03-31T09:02:42;4.00;;;1.97;;
6505;SDS011;3286;49.858;8.768;2023-03-31T09:08:10;4.60;;;1.93;;
6505;SDS011;3286;49.858;8.768;2023-03-31T09:10:41;2.87;;;1.97;;
6505;SDS011;3286;49.858;8.768;2023-03-31T09:13:21;7.27;;;2.20;;
6505;SDS011;3286;49.858;8.768;2023-03-31T09:15:58;4.40;;;2.40;;
6505;SDS011;3286;49.858;8.768;2023-03-31T09:18:30;5.67;;;2.60;;
6505;SDS011;3286;49.858;8.768;2023-03-31T09:21:01;4.60;;;2.17;;
6505;SDS011;3286;49.858;8.768;2023-03-31T09:23:33;6.97;;;2.17;;
6505;SDS011;3286;49.858;8.768;2023-03-31T09:26:04;4.30;;;2.17;;
6505;SDS011;3286;49.858;8.768;2023-03-31T09:28:34;7.23;;;2.60;;
6505;SDS011;3286;49.858;8.768;2023-03-31T09:31:03;7.00;;;2.30;;
6505;SDS011;3286;49.858;8.768;2023-03-31T09:33:39;6.47;;;2.40;;
6505;SDS011;3286;49.858;8.768;2023-03-31T09:36:12;4.83;;;2.13;;
6505;SDS011;3286;49.858;8.768;2023-03-31T09:38:42;3.47;;;2.00;;
6505;SDS011;3286;49.858;8.768;2023-03-31T09:41:09;5.27;;;1.90;;
6505;SDS011;3286;49.858;8.768;2023-03-31T09:43:43;3.20;;;1.60;;
6505;SDS011;3286;49.858;8.768;2023-03-31T09:46:14;5.53;;;2.13;;
6505;SDS011;3286;49.858;8.768;2023-03-31T09:48:47;5.80;;;2.00;;
6505;SDS011;3286;49.858;8.768;2023-03-31T09:51:19;6.00;;;2.00;;
6505;SDS011;3286;49.858;8.768;2023-03-31T09:53:51;3.53;;;1.90;;
6505;SDS011;3286;49.858;8.768;2023-03-31T09:56:31;7.10;;;1.83;;
6505;SDS011;3286;49.858;8.768;2023-03-31T09:59:02;5.50;;;2.30;;
6505;SDS011;3286;49.858;8.768;2023-03-31T10:01:29;7.03;;;1.87;;
6505;SDS011;3286;49.858;8.768;2023-03-31T10:03:56;7.00;;;1.73;;
6505;SDS011;3286;49.858;8.768;2023-03-31T10:06:23;5.10;;;1.57;;
6505;SDS011;3286;49.858;8.768;2023-03-31T10:08:50;4.40;;;1.53;;
6505;SDS011;3286;49.858;8.768;2023-03-31T10:11:21;4.70;;;2.10;;
6505;SDS011;3286;49.858;8.768;2023-03-31T10:13:49;4.63;;;1.80;;
6505;SDS011;3286;49.858;8.768;2023-03-31T10:16:26;4.40;;;1.60;;
6505;SDS011;3286;49.858;8.768;2023-03-31T10:18:55;2.60;;;1.53;;
6505;SDS011;3286;49.858;8.768;2023-03-31T10:21:37;4.20;;;1.33;;
6505;SDS011;3286;49.858;8.768;2023-03-31T10:24:07;2.10;;;0.80;;
6505;SDS011;3286;49.858;8.768;2023-03-31T10:26:34;1.67;;;1.00;;
6505;SDS011;3286;49.858;8.768;2023-03-31T10:29:02;2.97;;;0.90;;
6505;SDS011;3286;49.858;8.768;2023-03-31T10:31:38;3.23;;;0.87;;
6505;SDS011;3286;49.858;8.768;2023-03-31T10:34:05;2.53;;;1.10;;
6505;SDS011;3286;49.858;8.768;2023-03-31T10:36:35;3.33;;;1.03;;
6505;SDS011;3286;49.858;8.768;2023-03-31T10:39:04;6.67;;;1.40;;
6505;SDS011;3286;49.858;8.768;2023-03-31T10:41:31;9.60;;;1.50;;
6505;SDS011;3286;49.858;8.768;2023-03-31T10:43:59;2.13;;;1.03;;
6505;SDS011;3286;49.858;8.768;2023-03-31T10:46:43;5.00;;;1.30;;
6505;SDS011;3286;49.858;8.768;2023-03-31T10:49:14;7.23;;;1.47;;
6505;SDS011;3286;49.858;8.768;2023-03-31T10:51:47;2.37;;;0.97;;
6505;SDS011;3286;49.858;8.768;2023-03-31T10:54:15;3.90;;;1.43;;
6505;SDS011;3286;49.858;8.768;2023-03-31T10:56:43;5.03;;;1.40;;
6505;SDS011;3286;49.858;8.768;2023-03-31T10:59:14;5.00;;;1.30;;
6505;SDS011;3286;49.858;8.768;2023-03-31T11:02:04;2.43;;;1.03;;
6505;SDS011;3286;49.858;8.768;2023-03-31T11:04:50;5.20;;;1.40;;
6505;SDS011;3286;49.858;8.768;2023-03-31T11:07:34;5.97;;;1.43;;
6505;SDS011;3286;49.858;8.768;2023-03-31T11:13:02;5.80;;;1.17;;
6505;SDS011;3286;49.858;8.768;2023-03-31T11:15:37;13.03;;;1.80;;
6505;SDS011;3286;49.858;8.768;2023-03-31T11:18:16;7.60;;;1.90;;
6505;SDS011;3286;49.858;8.768;2023-03-31T11:20:56;5.60;;;2.00;;
6505;SDS011;3286;49.858;8.768;2023-03-31T11:23:31;7.23;;;1.90;;
6505;SDS011;3286;49.858;8.768;2023-03-31T11:26:06;7.93;;;2.58;;
6505;SDS011;3286;49.858;8.768;2023-03-31T11:28:43;4.65;;;2.15;;
6505;SDS011;3286;49.858;8.768;2023-03-31T11:31:26;6.38;;;1.80;;
6505;SDS011;3286;49.858;8.768;2023-03-31T11:37:11;6.32;;;1.75;;
6505;SDS011;3286;49.858;8.768;2023-03-31T11:39:48;4.78;;;1.80;;
6505;SDS011;3286;49.858;8.768;2023-03-31T11:42:32;4.00;;;1.63;;
6505;SDS011;3286;49.858;8.768;2023-03-31T11:45:03;5.38;;;1.90;;
6505;SDS011;3286;49.858;8.768;2023-03-31T11:47:38;5.88;;;1.90;;
6505;SDS011;3286;49.858;8.768;2023-03-31T11:50:10;3.92;;;1.48;;
6505;SDS011;3286;49.858;8.768;2023-03-31T11:52:39;7.97;;;1.73;;
6505;SDS011;3286;49.858;8.768;2023-03-31T11:55:11;9.20;;;1.92;;
6505;SDS011;3286;49.858;8.768;2023-03-31T11:57:43;7.00;;;1.98;;
6505;SDS011;3286;49.858;8.768;2023-03-31T12:00:15;6.78;;;1.95;;
6505;SDS011;3286;49.858;8.768;2023-03-31T12:02:45;4.45;;;1.88;;
6505;SDS011;3286;49.858;8.768;2023-03-31T12:05:17;8.02;;;2.38;;
6505;SDS011;3286;49.858;8.768;2023-03-31T12:07:47;7.55;;;1.95;;
6505;SDS011;3286;49.858;8.768;2023-03-31T12:10:20;5.13;;;1.65;;
6505;SDS011;3286;49.858;8.768;2023-03-31T12:12:49;4.88;;;1.70;;
6505;SDS011;3286;49.858;8.768;2023-03-31T12:15:21;8.27;;;1.80;;
6505;SDS011;3286;49.858;8.768;2023-03-31T12:17:53;5.88;;;1.63;;
6505;SDS011;3286;49.858;8.768;2023-03-31T12:20:27;6.45;;;1.95;;
6505;SDS011;3286;49.858;8.768;2023-03-31T12:22:57;5.88;;;1.63;;
6505;SDS011;3286;49.858;8.768;2023-03-31T12:25:29;6.63;;;1.45;;
6505;SDS011;3286;49.858;8.768;2023-03-31T12:28:07;7.30;;;1.80;;
6505;SDS011;3286;49.858;8.768;2023-03-31T12:30:36;7.40;;;1.80;;
6505;SDS011;3286;49.858;8.768;2023-03-31T12:33:11;5.35;;;1.45;;
6505;SDS011;3286;49.858;8.768;2023-03-31T12:35:47;5.17;;;1.40;;
6505;SDS011;3286;49.858;8.768;2023-03-31T12:38:28;3.73;;;1.30;;
6505;SDS011;3286;49.858;8.768;2023-03-31T12:41:03;6.37;;;1.67;;
6505;SDS011;3286;49.858;8.768;2023-03-31T12:46:41;5.23;;;2.10;;
6505;SDS011;3286;49.858;8.768;2023-03-31T12:49:21;7.57;;;1.63;;
6505;SDS011;3286;49.858;8.768;2023-03-31T12:52:03;7.33;;;1.87;;
6505;SDS011;3286;49.858;8.768;2023-03-31T12:54:38;6.57;;;1.57;;
6505;SDS011;3286;49.858;8.768;2023-03-31T12:57:21;5.70;;;1.50;;
6505;SDS011;3286;49.858;8.768;2023-03-31T13:02:50;6.10;;;1.53;;
6505;SDS011;3286;49.858;8.768;2023-03-31T13:05:55;3.83;;;1.40;;
6505;SDS011;3286;49.858;8.768;2023-03-31T13:11:21;5.07;;;1.50;;
6505;SDS011;3286;49.858;8.768;2023-03-31T13:13:59;5.07;;;1.30;;
6505;SDS011;3286;49.858;8.768;2023-03-31T13:16:28;6.07;;;1.73;;
6505;SDS011;3286;49.858;8.768;2023-03-31T13:18:55;5.73;;;1.47;;
6505;SDS011;3286;49.858;8.768;2023-03-31T13:21:23;4.90;;;1.40;;
6505;SDS011;3286;49.858;8.768;2023-03-31T13:23:50;8.63;;;1.50;;
6505;SDS011;3286;49.858;8.768;2023-03-31T13:29:22;3.93;;;1.43;;
6505;SDS011;3286;49.858;8.768;2023-03-31T13:32:06;4.20;;;1.13;;
6505;SDS011;3286;49.858;8.768;2023-03-31T13:34:45;6.25;;;1.40;;
6505;SDS011;3286;49.858;8.768;2023-03-31T13:37:18;3.27;;;1.17;;
6505;SDS011;3286;49.858;8.768;2023-03-31T13:42:59;3.73;;;1.23;;
6505;SDS011;3286;49.858;8.768;2023-03-31T13:45:50;4.17;;;0.90;;
6505;SDS011;3286;49.858;8.768;2023-03-31T13:48:27;2.13;;;0.70;;
6505;SDS011;3286;49.858;8.768;2023-03-31T13:51:14;1.03;;;0.60;;
6505;SDS011;3286;49.858;8.768;2023-03-31T13:56:54;1.20;;;0.70;;
6505;SDS011;3286;49.858;8.768;2023-03-31T14:03:04;2.50;;;0.70;;
6505;SDS011;3286;49.858;8.768;2023-03-31T14:05:39;0.80;;;0.50;;
6505;SDS011;3286;49.858;8.768;2023-03-31T14:08:09;2.50;;;0.87;;
6505;SDS011;3286;49.858;8.768;2023-03-31T14:10:39;1.07;;;0.70;;
6505;SDS011;3286;49.858;8.768;2023-03-31T14:13:08;1.87;;;0.70;;
6505;SDS011;3286;49.858;8.768;2023-03-31T14:15:39;3.37;;;0.87;;
6505;SDS011;3286;49.858;8.768;2023-03-31T14:18:10;1.37;;;0.53;;
6505;SDS011;3286;49.858;8.768;2023-03-31T14:20:43;1.67;;;0.90;;
6505;SDS011;3286;49.858;8.768;2023-03-31T14:23:21;0.80;;;0.60;;
6505;SDS011;3286;49.858;8.768;2023-03-31T14:25:59;1.43;;;0.77;;
6505;SDS011;3286;49.858;8.768;2023-03-31T14:28:39;3.13;;;0.90;;
6505;SDS011;3286;49.858;8.768;2023-03-31T14:31:19;5.77;;;0.87;;
6505;SDS011;3286;49.858;8.768;2023-03-31T14:34:01;3.37;;;0.90;;
6505;SDS011;3286;49.858;8.768;2023-03-31T14:36:52;3.93;;;1.23;;
6505;SDS011;3286;49.858;8.768;2023-03-31T14:39:24;1.80;;;0.90;;
6505;SDS011;3286;49.858;8.768;2023-03-31T14:41:55;1.33;;;0.70;;
6505;SDS011;3286;49.858;8.768;2023-03-31T14:44:25;1.87;;;0.90;;
6505;SDS011;3286;49.858;8.768;2023-03-31T14:46:54;2.97;;;0.90;;
6505;SDS011;3286;49.858;8.768;2023-03-31T14:49:24;1.63;;;0.90;;
6505;SDS011;3286;49.858;8.768;2023-03-31T14:51:52;2.87;;;1.30;;
6505;SDS011;3286;49.858;8.768;2023-03-31T14:54:20;1.63;;;0.90;;
6505;SDS011;3286;49.858;8.768;2023-03-31T14:56:47;5.33;;;1.07;;
6505;SDS011;3286;49.858;8.768;2023-03-31T14:59:19;4.83;;;1.40;;
6505;SDS011;3286;49.858;8.768;2023-03-31T15:01:49;4.70;;;1.67;;
6505;SDS011;3286;49.858;8.768;2023-03-31T15:04:18;8.80;;;1.80;;
6505;SDS011;3286;49.858;8.768;2023-03-31T15:06:48;4.40;;;1.47;;
6505;SDS011;3286;49.858;8.768;2023-03-31T15:09:17;7.57;;;1.87;;
6505;SDS011;3286;49.858;8.768;2023-03-31T15:11:46;4.87;;;1.60;;
6505;SDS011;3286;49.858;8.768;2023-03-31T15:14:18;6.90;;;1.53;;
6505;SDS011;3286;49.858;8.768;2023-03-31T15:16:45;14.17;;;3.93;;
6505;SDS011;3286;49.858;8.768;2023-03-31T15:19:15;6.80;;;1.47;;
6505;SDS011;3286;49.858;8.768;2023-03-31T15:21:45;3.33;;;1.07;;
6505;SDS011;3286;49.858;8.768;2023-03-31T15:24:18;2.50;;;1.03;;
6505;SDS011;3286;49.858;8.768;2023-03-31T15:26:45;2.40;;;1.00;;
6505;SDS011;3286;49.858;8.768;2023-03-31T15:29:19;2.20;;;0.70;;
6505;SDS011;3286;49.858;8.768;2023-03-31T15:31:48;3.30;;;1.00;;
6505;SDS011;3286;49.858;8.768;2023-03-31T15:34:19;1.17;;;0.60;;
6505;SDS011;3286;49.858;8.768;2023-03-31T15:36:48;0.43;;;0.43;;
6505;SDS011;3286;49.858;8.768;2023-03-31T15:39:15;2.40;;;0.70;;
6505;SDS011;3286;49.858;8.768;2023-03-31T15:41:41;3.10;;;0.50;;
6505;SDS011;3286;49.858;8.768;2023-03-31T15:47:00;4.00;;;1.20;;
6505;SDS011;3286;49.858;8.768;2023-03-31T15:49:32;3.07;;;1.10;;
6505;SDS011;3286;49.858;8.768;2023-03-31T15:52:00;1.50;;;0.60;;
6505;SDS011;3286;49.858;8.768;2023-03-31T15:54:32;3.03;;;0.87;;
6505;SDS011;3286;49.858;8.768;2023-03-31T15:57:01;4.37;;;1.17;;
6505;SDS011;3286;49.858;8.768;2023-03-31T15:59:30;1.43;;;0.60;;
6505;SDS011;3286;49.858;8.768;2023-03-31T16:02:08;3.37;;;0.80;;
6505;SDS011;3286;49.858;8.768;2023-03-31T16:04:40;2.93;;;0.97;;
6505;SDS011;3286;49.858;8.768;2023-03-31T16:07:07;4.80;;;1.20;;
6505;SDS011;3286;49.858;8.768;2023-03-31T16:09:41;2.60;;;0.87;;
6505;SDS011;3286;49.858;8.768;2023-03-31T16:12:13;2.00;;;0.90;;
6505;SDS011;3286;49.858;8.768;2023-03-31T16:14:44;4.33;;;1.20;;
6505;SDS011;3286;49.858;8.768;2023-03-31T16:17:18;5.30;;;1.17;;
6505;SDS011;3286;49.858;8.768;2023-03-31T16:19:52;5.90;;;1.10;;
6505;SDS011;3286;49.858;8.768;2023-03-31T16:22:24;4.27;;;1.50;;